sensor_id;sensor_type;location;lat;lon;timestamp;P1;durP1;ratioP1;P2;durP2;ratioP2
40659;SDS011;26753;45.544;9.232;2024-02-15T00:12:19;39.50;;;23.35;;
40659;SDS011;26753;45.544;9.232;2024-02-15T00:14:48;40.22;;;23.98;;
40659;SDS011;26753;45.544;9.232;2024-02-15T00:17:35;42.45;;;24.13;;
40659;SDS011;26753;45.544;9.232;2024-02-15T00:20:06;43.03;;;23.45;;
40659;SDS011;26753;45.544;9.232;2024-02-15T00:22:35;40.90;;;23.70;;
40659;SDS011;26753;45.544;9.232;2024-02-15T00:25:14;41.00;;;23.67;;
40659;SDS011;26753;45.544;9.232;2024-02-15T00:30:33;41.03;;;23.52;;
40659;SDS011;26753;45.544;9.232;2024-02-15T00:36:18;41.47;;;24.02;;
40659;SDS011;26753;45.544;9.232;2024-02-15T00:39:37;42.60;;;24.08;;
40659;SDS011;26753;45.544;9.232;2024-02-15T00:49:24;45.15;;;25.17;;
40659;SDS011;26753;45.544;9.232;2024-02-15T00:52:09;45.05;;;25.05;;
40659;SDS011;26753;45.544;9.232;2024-02-15T00:57:52;41.47;;;25.35;;
40659;SDS011;26753;45.544;9.232;2024-02-15T01:00:36;42.70;;;24.60;;
40659;SDS011;26753;45.544;9.232;2024-02-15T01:03:12;45.28;;;26.00;;
40659;SDS011;26753;45.544;9.232;2024-02-15T01:05:40;45.67;;;25.88;;
40659;SDS011;26753;45.544;9.232;2024-02-15T01:08:06;46.67;;;25.42;;
40659;SDS011;26753;45.544;9.232;2024-02-15T01:10:37;47.42;;;26.00;;
40659;SDS011;26753;45.544;9.232;2024-02-15T01:16:02;45.35;;;25.27;;
40659;SDS011;26753;45.544;9.232;2024-02-15T01:18:32;47.17;;;25.83;;
40659;SDS011;26753;45.544;9.232;2024-02-15T01:21:07;46.13;;;26.35;;
40659;SDS011;26753;45.544;9.232;2024-02-15T01:23:33;45.85;;;25.40;;
40659;SDS011;26753;45.544;9.232;2024-02-15T01:26:02;50.40;;;26.38;;
40659;SDS011;26753;45.544;9.232;2024-02-15T01:28:28;41.72;;;24.90;;
40659;SDS011;26753;45.544;9.232;2024-02-15T01:30:57;45.90;;;25.73;;
40659;SDS011;26753;45.544;9.232;2024-02-15T01:33:23;45.17;;;25.05;;
40659;SDS011;26753;45.544;9.232;2024-02-15T01:35:48;43.10;;;24.45;;
40659;SDS011;26753;45.544;9.232;2024-02-15T01:38:18;40.40;;;24.20;;
40659;SDS011;26753;45.544;9.232;2024-02-15T01:40:47;40.47;;;23.75;;
40659;SDS011;26753;45.544;9.232;2024-02-15T01:43:18;42.47;;;24.40;;
40659;SDS011;26753;45.544;9.232;2024-02-15T01:45:47;43.45;;;25.50;;
40659;SDS011;26753;45.544;9.232;2024-02-15T01:48:23;42.67;;;24.77;;
40659;SDS011;26753;45.544;9.232;2024-02-15T01:51:06;42.83;;;24.38;;
40659;SDS011;26753;45.544;9.232;2024-02-15T01:53:35;39.78;;;24.00;;
40659;SDS011;26753;45.544;9.232;2024-02-15T01:56:17;42.40;;;25.45;;
40659;SDS011;26753;45.544;9.232;2024-02-15T01:59:23;45.03;;;24.95;;
40659;SDS011;26753;45.544;9.232;2024-02-15T02:01:53;43.97;;;24.98;;
40659;SDS011;26753;45.544;9.232;2024-02-15T02:04:30;41.92;;;25.40;;
40659;SDS011;26753;45.544;9.232;2024-02-15T02:06:57;46.95;;;28.10;;
40659;SDS011;26753;45.544;9.232;2024-02-15T02:09:34;46.83;;;27.52;;
40659;SDS011;26753;45.544;9.232;2024-02-15T02:12:02;45.60;;;28.48;;
40659;SDS011;26753;45.544;9.232;2024-02-15T02:14:29;49.58;;;28.60;;
40659;SDS011;26753;45.544;9.232;2024-02-15T02:20:06;45.63;;;27.23;;
40659;SDS011;26753;45.544;9.232;2024-02-15T02:25:27;42.35;;;23.35;;
40659;SDS011;26753;45.544;9.232;2024-02-15T02:27:56;47.15;;;23.40;;
40659;SDS011;26753;45.544;9.232;2024-02-15T02:30:29;42.28;;;23.00;;
40659;SDS011;26753;45.544;9.232;2024-02-15T02:35:43;46.30;;;24.42;;
40659;SDS011;26753;45.544;9.232;2024-02-15T02:41:08;42.53;;;23.75;;
40659;SDS011;26753;45.544;9.232;2024-02-15T02:49:42;41.90;;;23.42;;
40659;SDS011;26753;45.544;9.232;2024-02-15T02:52:43;41.78;;;23.40;;
40659;SDS011;26753;45.544;9.232;2024-02-15T02:55:13;47.72;;;23.33;;
40659;SDS011;26753;45.544;9.232;2024-02-15T03:05:08;42.05;;;23.30;;
40659;SDS011;26753;45.544;9.232;2024-02-15T03:39:31;40.85;;;24.38;;
40659;SDS011;26753;45.544;9.232;2024-02-15T03:49:52;38.97;;;23.98;;
40659;SDS011;26753;45.544;9.232;2024-02-15T03:55:20;43.35;;;23.38;;
40659;SDS011;26753;45.544;9.232;2024-02-15T03:57:50;39.53;;;22.70;;
40659;SDS011;26753;45.544;9.232;2024-02-15T04:00:54;41.10;;;22.80;;
40659;SDS011;26753;45.544;9.232;2024-02-15T04:17:16;35.63;;;20.30;;
40659;SDS011;26753;45.544;9.232;2024-02-15T04:20:16;34.65;;;19.42;;
40659;SDS011;26753;45.544;9.232;2024-02-15T04:23:30;34.33;;;20.40;;
40659;SDS011;26753;45.544;9.232;2024-02-15T04:36:18;37.42;;;22.33;;
40659;SDS011;26753;45.544;9.232;2024-02-15T04:38:59;42.40;;;22.05;;
40659;SDS011;26753;45.544;9.232;2024-02-15T04:41:52;39.85;;;22.33;;
40659;SDS011;26753;45.544;9.232;2024-02-15T04:44:47;36.92;;;21.73;;
40659;SDS011;26753;45.544;9.232;2024-02-15T04:54:09;33.72;;;20.02;;
40659;SDS011;26753;45.544;9.232;2024-02-15T04:56:43;35.28;;;20.48;;
40659;SDS011;26753;45.544;9.232;2024-02-15T05:02:33;33.72;;;19.70;;
40659;SDS011;26753;45.544;9.232;2024-02-15T05:08:04;36.85;;;19.73;;
40659;SDS011;26753;45.544;9.232;2024-02-15T05:10:29;36.72;;;20.27;;
40659;SDS011;26753;45.544;9.232;2024-02-15T05:13:24;34.63;;;19.65;;
40659;SDS011;26753;45.544;9.232;2024-02-15T05:16:41;34.42;;;19.92;;
40659;SDS011;26753;45.544;9.232;2024-02-15T05:19:33;39.05;;;19.55;;
40659;SDS011;26753;45.544;9.232;2024-02-15T05:22:04;35.10;;;20.10;;
40659;SDS011;26753;45.544;9.232;2024-02-15T05:25:04;35.55;;;19.25;;
40659;SDS011;26753;45.544;9.232;2024-02-15T05:27:49;34.72;;;19.92;;
40659;SDS011;26753;45.544;9.232;2024-02-15T05:30:15;32.08;;;20.02;;
40659;SDS011;26753;45.544;9.232;2024-02-15T05:33:03;32.17;;;18.92;;
40659;SDS011;26753;45.544;9.232;2024-02-15T05:46:42;30.85;;;18.80;;
40659;SDS011;26753;45.544;9.232;2024-02-15T05:52:16;37.08;;;20.25;;
40659;SDS011;26753;45.544;9.232;2024-02-15T05:55:23;34.15;;;20.50;;
40659;SDS011;26753;45.544;9.232;2024-02-15T05:58:01;37.15;;;20.77;;
40659;SDS011;26753;45.544;9.232;2024-02-15T06:03:31;36.50;;;21.52;;
40659;SDS011;26753;45.544;9.232;2024-02-15T06:06:03;37.90;;;22.65;;
40659;SDS011;26753;45.544;9.232;2024-02-15T06:09:01;36.42;;;22.73;;
40659;SDS011;26753;45.544;9.232;2024-02-15T06:11:58;35.97;;;22.60;;
40659;SDS011;26753;45.544;9.232;2024-02-15T06:14:28;42.63;;;23.30;;
40659;SDS011;26753;45.544;9.232;2024-02-15T06:17:14;42.03;;;24.23;;
40659;SDS011;26753;45.544;9.232;2024-02-15T06:20:13;39.45;;;23.30;;
40659;SDS011;26753;45.544;9.232;2024-02-15T06:22:39;43.33;;;24.05;;
40659;SDS011;26753;45.544;9.232;2024-02-15T06:25:05;36.45;;;22.67;;
40659;SDS011;26753;45.544;9.232;2024-02-15T06:27:39;41.33;;;23.15;;
40659;SDS011;26753;45.544;9.232;2024-02-15T06:30:55;42.22;;;23.17;;
40659;SDS011;26753;45.544;9.232;2024-02-15T06:37:43;36.50;;;20.50;;
40659;SDS011;26753;45.544;9.232;2024-02-15T06:40:30;42.33;;;21.30;;
40659;SDS011;26753;45.544;9.232;2024-02-15T06:43:16;39.05;;;21.20;;
40659;SDS011;26753;45.544;9.232;2024-02-15T06:45:46;37.30;;;21.40;;
40659;SDS011;26753;45.544;9.232;2024-02-15T06:48:12;41.95;;;21.85;;
40659;SDS011;26753;45.544;9.232;2024-02-15T06:50:42;46.25;;;22.50;;
40659;SDS011;26753;45.544;9.232;2024-02-15T06:53:11;38.90;;;22.88;;
40659;SDS011;26753;45.544;9.232;2024-02-15T06:55:37;42.10;;;22.17;;
40659;SDS011;26753;45.544;9.232;2024-02-15T06:58:04;44.58;;;23.10;;
40659;SDS011;26753;45.544;9.232;2024-02-15T07:03:23;37.38;;;21.50;;
40659;SDS011;26753;45.544;9.232;2024-02-15T07:05:57;38.08;;;21.65;;
40659;SDS011;26753;45.544;9.232;2024-02-15T07:08:23;38.65;;;21.42;;
40659;SDS011;26753;45.544;9.232;2024-02-15T07:10:50;34.42;;;19.80;;
40659;SDS011;26753;45.544;9.232;2024-02-15T07:13:21;37.75;;;20.73;;
40659;SDS011;26753;45.544;9.232;2024-02-15T07:15:47;37.17;;;20.25;;
40659;SDS011;26753;45.544;9.232;2024-02-15T07:18:16;38.45;;;20.85;;
40659;SDS011;26753;45.544;9.232;2024-02-15T07:23:54;43.30;;;20.52;;
40659;SDS011;26753;45.544;9.232;2024-02-15T07:26:21;38.95;;;21.35;;
40659;SDS011;26753;45.544;9.232;2024-02-15T07:29:08;35.35;;;21.13;;
40659;SDS011;26753;45.544;9.232;2024-02-15T07:31:40;44.58;;;21.77;;
40659;SDS011;26753;45.544;9.232;2024-02-15T07:34:16;46.80;;;21.65;;
40659;SDS011;26753;45.544;9.232;2024-02-15T07:36:45;40.35;;;21.38;;
40659;SDS011;26753;45.544;9.232;2024-02-15T07:39:17;41.42;;;20.70;;
40659;SDS011;26753;45.544;9.232;2024-02-15T07:41:53;44.63;;;21.48;;
40659;SDS011;26753;45.544;9.232;2024-02-15T07:44:20;41.92;;;21.80;;
40659;SDS011;26753;45.544;9.232;2024-02-15T07:46:51;47.10;;;21.90;;
40659;SDS011;26753;45.544;9.232;2024-02-15T07:49:26;43.10;;;21.38;;
40659;SDS011;26753;45.544;9.232;2024-02-15T07:51:55;42.63;;;21.65;;
40659;SDS011;26753;45.544;9.232;2024-02-15T07:54:21;40.45;;;21.88;;
40659;SDS011;26753;45.544;9.232;2024-02-15T07:56:54;46.45;;;22.55;;
40659;SDS011;26753;45.544;9.232;2024-02-15T07:59:19;44.72;;;22.80;;
40659;SDS011;26753;45.544;9.232;2024-02-15T08:01:45;47.20;;;23.98;;
40659;SDS011;26753;45.544;9.232;2024-02-15T08:04:18;39.00;;;22.80;;
40659;SDS011;26753;45.544;9.232;2024-02-15T08:06:45;41.88;;;22.92;;
40659;SDS011;26753;45.544;9.232;2024-02-15T08:09:10;36.88;;;22.65;;
40659;SDS011;26753;45.544;9.232;2024-02-15T08:11:41;45.15;;;22.30;;
40659;SDS011;26753;45.544;9.232;2024-02-15T08:14:07;42.00;;;23.30;;
40659;SDS011;26753;45.544;9.232;2024-02-15T08:16:35;43.60;;;23.75;;
40659;SDS011;26753;45.544;9.232;2024-02-15T08:19:08;45.20;;;23.25;;
40659;SDS011;26753;45.544;9.232;2024-02-15T08:24:48;45.75;;;24.52;;
40659;SDS011;26753;45.544;9.232;2024-02-15T08:27:22;47.00;;;25.15;;
40659;SDS011;26753;45.544;9.232;2024-02-15T08:29:48;50.45;;;26.08;;
40659;SDS011;26753;45.544;9.232;2024-02-15T08:32:14;50.60;;;26.48;;
40659;SDS011;26753;45.544;9.232;2024-02-15T08:34:39;43.40;;;24.63;;
40659;SDS011;26753;45.544;9.232;2024-02-15T08:37:05;45.75;;;25.10;;
40659;SDS011;26753;45.544;9.232;2024-02-15T08:39:32;43.15;;;26.23;;
40659;SDS011;26753;45.544;9.232;2024-02-15T08:41:58;47.25;;;26.38;;
40659;SDS011;26753;45.544;9.232;2024-02-15T08:44:24;45.85;;;25.23;;
40659;SDS011;26753;45.544;9.232;2024-02-15T08:46:59;50.20;;;25.65;;
40659;SDS011;26753;45.544;9.232;2024-02-15T08:49:25;44.00;;;25.77;;
40659;SDS011;26753;45.544;9.232;2024-02-15T08:51:52;44.58;;;25.48;;
40659;SDS011;26753;45.544;9.232;2024-02-15T08:54:18;46.83;;;26.60;;
40659;SDS011;26753;45.544;9.232;2024-02-15T08:56:46;42.65;;;25.38;;
40659;SDS011;26753;45.544;9.232;2024-02-15T08:59:12;47.40;;;25.80;;
40659;SDS011;26753;45.544;9.232;2024-02-15T09:01:40;40.78;;;25.33;;
40659;SDS011;26753;45.544;9.232;2024-02-15T09:04:08;45.67;;;25.92;;
40659;SDS011;26753;45.544;9.232;2024-02-15T09:06:34;44.38;;;25.27;;
40659;SDS011;26753;45.544;9.232;2024-02-15T09:09:00;43.85;;;26.13;;
40659;SDS011;26753;45.544;9.232;2024-02-15T09:11:29;40.75;;;25.65;;
40659;SDS011;26753;45.544;9.232;2024-02-15T09:13:59;46.80;;;26.40;;
40659;SDS011;26753;45.544;9.232;2024-02-15T09:16:25;46.25;;;27.20;;
40659;SDS011;26753;45.544;9.232;2024-02-15T09:18:54;45.08;;;26.10;;
40659;SDS011;26753;45.544;9.232;2024-02-15T09:21:27;46.42;;;26.83;;
40659;SDS011;26753;45.544;9.232;2024-02-15T09:23:54;50.90;;;26.55;;
40659;SDS011;26753;45.544;9.232;2024-02-15T09:26:20;47.67;;;29.02;;
40659;SDS011;26753;45.544;9.232;2024-02-15T09:28:48;41.20;;;28.25;;
40659;SDS011;26753;45.544;9.232;2024-02-15T09:33:52;41.85;;;26.77;;
40659;SDS011;26753;45.544;9.232;2024-02-15T09:36:23;43.22;;;27.45;;
40659;SDS011;26753;45.544;9.232;2024-02-15T09:38:49;40.30;;;25.98;;
40659;SDS011;26753;45.544;9.232;2024-02-15T09:41:18;40.65;;;25.42;;
40659;SDS011;26753;45.544;9.232;2024-02-15T09:43:44;40.08;;;24.98;;
40659;SDS011;26753;45.544;9.232;2024-02-15T09:46:10;39.63;;;26.33;;
40659;SDS011;26753;45.544;9.232;2024-02-15T09:48:36;38.92;;;26.20;;
40659;SDS011;26753;45.544;9.232;2024-02-15T09:51:05;42.08;;;26.50;;
40659;SDS011;26753;45.544;9.232;2024-02-15T09:53:34;41.42;;;27.27;;
40659;SDS011;26753;45.544;9.232;2024-02-15T09:56:00;43.25;;;26.85;;
40659;SDS011;26753;45.544;9.232;2024-02-15T09:58:29;45.78;;;27.60;;
40659;SDS011;26753;45.544;9.232;2024-02-15T10:01:03;44.58;;;27.05;;
40659;SDS011;26753;45.544;9.232;2024-02-15T10:03:36;46.17;;;27.38;;
40659;SDS011;26753;45.544;9.232;2024-02-15T10:06:05;40.42;;;27.10;;
40659;SDS011;26753;45.544;9.232;2024-02-15T10:08:31;44.45;;;28.23;;
40659;SDS011;26753;45.544;9.232;2024-02-15T10:11:10;45.35;;;27.35;;
40659;SDS011;26753;45.544;9.232;2024-02-15T10:13:36;42.58;;;28.00;;
40659;SDS011;26753;45.544;9.232;2024-02-15T10:16:15;44.67;;;27.13;;
40659;SDS011;26753;45.544;9.232;2024-02-15T10:18:56;45.65;;;28.88;;
40659;SDS011;26753;45.544;9.232;2024-02-15T10:21:35;43.17;;;28.42;;
40659;SDS011;26753;45.544;9.232;2024-02-15T10:24:08;44.83;;;28.67;;
40659;SDS011;26753;45.544;9.232;2024-02-15T10:26:35;46.47;;;29.90;;
40659;SDS011;26753;45.544;9.232;2024-02-15T10:29:07;44.03;;;29.23;;
40659;SDS011;26753;45.544;9.232;2024-02-15T10:31:37;44.22;;;30.15;;
40659;SDS011;26753;45.544;9.232;2024-02-15T10:34:07;50.80;;;31.55;;
40659;SDS011;26753;45.544;9.232;2024-02-15T10:36:33;51.53;;;30.92;;
40659;SDS011;26753;45.544;9.232;2024-02-15T10:39:10;47.20;;;30.33;;
40659;SDS011;26753;45.544;9.232;2024-02-15T10:41:45;45.42;;;29.85;;
40659;SDS011;26753;45.544;9.232;2024-02-15T10:44:15;47.40;;;29.83;;
40659;SDS011;26753;45.544;9.232;2024-02-15T10:46:51;43.88;;;30.05;;
40659;SDS011;26753;45.544;9.232;2024-02-15T10:49:18;47.10;;;30.80;;
40659;SDS011;26753;45.544;9.232;2024-02-15T10:51:47;49.28;;;30.75;;
40659;SDS011;26753;45.544;9.232;2024-02-15T10:54:40;48.00;;;29.52;;
40659;SDS011;26753;45.544;9.232;2024-02-15T10:57:12;43.67;;;28.83;;
40659;SDS011;26753;45.544;9.232;2024-02-15T10:59:53;51.63;;;30.60;;
40659;SDS011;26753;45.544;9.232;2024-02-15T11:02:27;43.90;;;28.75;;
40659;SDS011;26753;45.544;9.232;2024-02-15T11:04:56;47.50;;;29.30;;
40659;SDS011;26753;45.544;9.232;2024-02-15T11:07:31;51.15;;;30.08;;
40659;SDS011;26753;45.544;9.232;2024-02-15T11:09:58;51.45;;;30.85;;
40659;SDS011;26753;45.544;9.232;2024-02-15T11:12:24;47.65;;;30.40;;
40659;SDS011;26753;45.544;9.232;2024-02-15T11:14:51;49.15;;;30.50;;
40659;SDS011;26753;45.544;9.232;2024-02-15T11:20:05;52.25;;;31.63;;
40659;SDS011;26753;45.544;9.232;2024-02-15T11:22:36;45.45;;;28.98;;
40659;SDS011;26753;45.544;9.232;2024-02-15T11:25:07;44.55;;;29.00;;
40659;SDS011;26753;45.544;9.232;2024-02-15T11:27:34;45.65;;;29.30;;
40659;SDS011;26753;45.544;9.232;2024-02-15T11:30:05;46.97;;;29.73;;
40659;SDS011;26753;45.544;9.232;2024-02-15T11:32:44;48.03;;;30.27;;
40659;SDS011;26753;45.544;9.232;2024-02-15T11:35:20;49.13;;;29.63;;
40659;SDS011;26753;45.544;9.232;2024-02-15T11:43:09;45.60;;;29.38;;
40659;SDS011;26753;45.544;9.232;2024-02-15T11:45:58;45.50;;;28.50;;
40659;SDS011;26753;45.544;9.232;2024-02-15T11:48:28;43.15;;;27.38;;
40659;SDS011;26753;45.544;9.232;2024-02-15T11:50:54;49.63;;;28.83;;
40659;SDS011;26753;45.544;9.232;2024-02-15T11:53:19;47.50;;;29.30;;
40659;SDS011;26753;45.544;9.232;2024-02-15T11:55:52;49.08;;;29.48;;
40659;SDS011;26753;45.544;9.232;2024-02-15T11:58:30;44.13;;;29.13;;
40659;SDS011;26753;45.544;9.232;2024-02-15T12:01:17;44.10;;;29.05;;
40659;SDS011;26753;45.544;9.232;2024-02-15T12:04:02;46.60;;;28.67;;
40659;SDS011;26753;45.544;9.232;2024-02-15T12:06:49;44.90;;;29.33;;
40659;SDS011;26753;45.544;9.232;2024-02-15T12:09:39;46.08;;;29.75;;
40659;SDS011;26753;45.544;9.232;2024-02-15T12:12:24;48.38;;;30.20;;
40659;SDS011;26753;45.544;9.232;2024-02-15T12:15:08;45.45;;;30.42;;
40659;SDS011;26753;45.544;9.232;2024-02-15T12:17:52;47.95;;;29.35;;
40659;SDS011;26753;45.544;9.232;2024-02-15T12:20:36;46.63;;;30.20;;
40659;SDS011;26753;45.544;9.232;2024-02-15T12:23:02;43.78;;;29.67;;
40659;SDS011;26753;45.544;9.232;2024-02-15T12:25:34;47.25;;;30.05;;
40659;SDS011;26753;45.544;9.232;2024-02-15T12:28:03;53.30;;;34.17;;
40659;SDS011;26753;45.544;9.232;2024-02-15T12:30:36;53.10;;;32.90;;
40659;SDS011;26753;45.544;9.232;2024-02-15T12:33:09;55.45;;;36.47;;
40659;SDS011;26753;45.544;9.232;2024-02-15T12:36:06;57.10;;;34.33;;
40659;SDS011;26753;45.544;9.232;2024-02-15T12:38:34;51.65;;;33.60;;
40659;SDS011;26753;45.544;9.232;2024-02-15T12:41:03;52.42;;;34.10;;
40659;SDS011;26753;45.544;9.232;2024-02-15T12:43:41;52.00;;;33.38;;
40659;SDS011;26753;45.544;9.232;2024-02-15T12:46:08;48.78;;;32.30;;
40659;SDS011;26753;45.544;9.232;2024-02-15T12:48:33;49.80;;;33.42;;
40659;SDS011;26753;45.544;9.232;2024-02-15T12:51:12;58.38;;;33.58;;
40659;SDS011;26753;45.544;9.232;2024-02-15T12:53:39;58.00;;;33.40;;
40659;SDS011;26753;45.544;9.232;2024-02-15T12:56:06;51.42;;;31.92;;
40659;SDS011;26753;45.544;9.232;2024-02-15T12:58:34;52.92;;;34.42;;
40659;SDS011;26753;45.544;9.232;2024-02-15T13:01:00;49.90;;;32.78;;
40659;SDS011;26753;45.544;9.232;2024-02-15T13:03:27;50.00;;;33.03;;
40659;SDS011;26753;45.544;9.232;2024-02-15T13:05:53;49.47;;;32.42;;
40659;SDS011;26753;45.544;9.232;2024-02-15T13:08:18;51.10;;;33.88;;
40659;SDS011;26753;45.544;9.232;2024-02-15T13:10:45;54.45;;;33.65;;
40659;SDS011;26753;45.544;9.232;2024-02-15T13:13:12;50.30;;;33.40;;
40659;SDS011;26753;45.544;9.232;2024-02-15T13:15:42;49.10;;;32.60;;
40659;SDS011;26753;45.544;9.232;2024-02-15T13:18:09;57.53;;;33.10;;
40659;SDS011;26753;45.544;9.232;2024-02-15T13:20:36;56.33;;;33.33;;
40659;SDS011;26753;45.544;9.232;2024-02-15T13:25:36;56.17;;;33.45;;
40659;SDS011;26753;45.544;9.232;2024-02-15T13:28:04;49.22;;;32.55;;
40659;SDS011;26753;45.544;9.232;2024-02-15T13:30:30;53.25;;;34.72;;
40659;SDS011;26753;45.544;9.232;2024-02-15T13:32:57;51.65;;;34.08;;
40659;SDS011;26753;45.544;9.232;2024-02-15T13:35:23;51.13;;;32.45;;
40659;SDS011;26753;45.544;9.232;2024-02-15T13:37:49;48.88;;;32.25;;
40659;SDS011;26753;45.544;9.232;2024-02-15T13:40:26;50.72;;;32.38;;
40659;SDS011;26753;45.544;9.232;2024-02-15T13:42:56;49.33;;;32.25;;
40659;SDS011;26753;45.544;9.232;2024-02-15T13:48:00;47.55;;;30.75;;
40659;SDS011;26753;45.544;9.232;2024-02-15T13:50:30;47.08;;;31.73;;
40659;SDS011;26753;45.544;9.232;2024-02-15T13:53:06;52.58;;;33.28;;
40659;SDS011;26753;45.544;9.232;2024-02-15T13:55:34;51.55;;;32.13;;
40659;SDS011;26753;45.544;9.232;2024-02-15T13:58:01;51.80;;;33.13;;
40659;SDS011;26753;45.544;9.232;2024-02-15T14:00:27;44.45;;;31.00;;
40659;SDS011;26753;45.544;9.232;2024-02-15T14:02:59;49.33;;;31.45;;
40659;SDS011;26753;45.544;9.232;2024-02-15T14:05:26;47.17;;;31.67;;
40659;SDS011;26753;45.544;9.232;2024-02-15T14:07:57;49.03;;;32.13;;
40659;SDS011;26753;45.544;9.232;2024-02-15T14:10:28;45.92;;;29.90;;
40659;SDS011;26753;45.544;9.232;2024-02-15T14:15:49;46.15;;;30.42;;
40659;SDS011;26753;45.544;9.232;2024-02-15T14:18:14;45.03;;;31.02;;
40659;SDS011;26753;45.544;9.232;2024-02-15T14:20:43;45.08;;;31.08;;
40659;SDS011;26753;45.544;9.232;2024-02-15T14:23:13;44.95;;;30.88;;
40659;SDS011;26753;45.544;9.232;2024-02-15T14:25:40;46.63;;;31.05;;
40659;SDS011;26753;45.544;9.232;2024-02-15T14:28:08;42.08;;;29.92;;
40659;SDS011;26753;45.544;9.232;2024-02-15T14:30:35;43.33;;;30.48;;
40659;SDS011;26753;45.544;9.232;2024-02-15T14:33:19;49.65;;;31.23;;
40659;SDS011;26753;45.544;9.232;2024-02-15T14:35:49;48.20;;;31.35;;
40659;SDS011;26753;45.544;9.232;2024-02-15T14:38:21;61.47;;;30.27;;
40659;SDS011;26753;45.544;9.232;2024-02-15T14:40:48;49.83;;;31.80;;
40659;SDS011;26753;45.544;9.232;2024-02-15T14:43:23;47.50;;;33.15;;
40659;SDS011;26753;45.544;9.232;2024-02-15T14:45:56;47.22;;;31.85;;
40659;SDS011;26753;45.544;9.232;2024-02-15T14:48:22;47.83;;;31.40;;
40659;SDS011;26753;45.544;9.232;2024-02-15T14:50:49;50.60;;;31.80;;
40659;SDS011;26753;45.544;9.232;2024-02-15T14:53:15;51.70;;;32.08;;
40659;SDS011;26753;45.544;9.232;2024-02-15T14:55:43;50.00;;;33.05;;
40659;SDS011;26753;45.544;9.232;2024-02-15T14:58:11;48.22;;;32.50;;
40659;SDS011;26753;45.544;9.232;2024-02-15T15:00:40;51.88;;;31.92;;
40659;SDS011;26753;45.544;9.232;2024-02-15T15:03:11;51.88;;;33.00;;
40659;SDS011;26753;45.544;9.232;2024-02-15T15:05:40;51.05;;;32.97;;
40659;SDS011;26753;45.544;9.232;2024-02-15T15:08:25;48.65;;;32.67;;
40659;SDS011;26753;45.544;9.232;2024-02-15T15:11:10;51.38;;;32.45;;
40659;SDS011;26753;45.544;9.232;2024-02-15T15:13:54;47.17;;;30.23;;
40659;SDS011;26753;45.544;9.232;2024-02-15T15:16:20;46.38;;;30.92;;
40659;SDS011;26753;45.544;9.232;2024-02-15T15:18:51;47.65;;;31.00;;
40659;SDS011;26753;45.544;9.232;2024-02-15T15:21:18;45.80;;;31.45;;
40659;SDS011;26753;45.544;9.232;2024-02-15T15:23:44;45.92;;;31.40;;
40659;SDS011;26753;45.544;9.232;2024-02-15T15:26:10;46.22;;;30.27;;
40659;SDS011;26753;45.544;9.232;2024-02-15T15:28:37;47.97;;;30.25;;
40659;SDS011;26753;45.544;9.232;2024-02-15T15:31:03;45.83;;;29.80;;
40659;SDS011;26753;45.544;9.232;2024-02-15T15:33:30;46.42;;;31.05;;
40659;SDS011;26753;45.544;9.232;2024-02-15T15:35:58;45.35;;;30.67;;
40659;SDS011;26753;45.544;9.232;2024-02-15T15:38:25;47.08;;;31.50;;
40659;SDS011;26753;45.544;9.232;2024-02-15T15:40:52;47.33;;;31.52;;
40659;SDS011;26753;45.544;9.232;2024-02-15T15:43:18;49.17;;;30.75;;
40659;SDS011;26753;45.544;9.232;2024-02-15T15:45:45;46.17;;;30.70;;
40659;SDS011;26753;45.544;9.232;2024-02-15T15:48:24;64.20;;;31.67;;
40659;SDS011;26753;45.544;9.232;2024-02-15T15:50:50;51.92;;;30.75;;
40659;SDS011;26753;45.544;9.232;2024-02-15T15:53:19;49.15;;;31.58;;
40659;SDS011;26753;45.544;9.232;2024-02-15T15:55:45;48.15;;;31.48;;
40659;SDS011;26753;45.544;9.232;2024-02-15T15:58:11;47.80;;;31.63;;
40659;SDS011;26753;45.544;9.232;2024-02-15T16:00:41;49.17;;;31.55;;
40659;SDS011;26753;45.544;9.232;2024-02-15T16:03:06;47.60;;;31.40;;
40659;SDS011;26753;45.544;9.232;2024-02-15T16:05:33;47.60;;;31.67;;
40659;SDS011;26753;45.544;9.232;2024-02-15T16:07:59;53.30;;;31.48;;
40659;SDS011;26753;45.544;9.232;2024-02-15T16:10:25;51.55;;;32.00;;
40659;SDS011;26753;45.544;9.232;2024-02-15T16:12:52;49.28;;;31.52;;
40659;SDS011;26753;45.544;9.232;2024-02-15T16:15:18;49.95;;;31.73;;
40659;SDS011;26753;45.544;9.232;2024-02-15T16:17:44;49.03;;;31.52;;
40659;SDS011;26753;45.544;9.232;2024-02-15T16:20:10;48.97;;;31.83;;
40659;SDS011;26753;45.544;9.232;2024-02-15T16:22:39;52.90;;;32.05;;
40659;SDS011;26753;45.544;9.232;2024-02-15T16:25:06;52.00;;;33.10;;
40659;SDS011;26753;45.544;9.232;2024-02-15T16:30:02;48.05;;;31.25;;
40659;SDS011;26753;45.544;9.232;2024-02-15T16:32:29;51.13;;;31.15;;
40659;SDS011;26753;45.544;9.232;2024-02-15T16:34:56;53.92;;;32.92;;
40659;SDS011;26753;45.544;9.232;2024-02-15T16:37:26;51.17;;;32.55;;
40659;SDS011;26753;45.544;9.232;2024-02-15T16:39:52;50.30;;;32.83;;
40659;SDS011;26753;45.544;9.232;2024-02-15T16:42:21;48.63;;;31.15;;
40659;SDS011;26753;45.544;9.232;2024-02-15T16:44:50;54.42;;;32.88;;
40659;SDS011;26753;45.544;9.232;2024-02-15T16:47:17;50.63;;;32.17;;
40659;SDS011;26753;45.544;9.232;2024-02-15T16:49:50;55.00;;;32.80;;
40659;SDS011;26753;45.544;9.232;2024-02-15T16:52:19;50.92;;;32.45;;
40659;SDS011;26753;45.544;9.232;2024-02-15T16:54:45;52.65;;;33.53;;
40659;SDS011;26753;45.544;9.232;2024-02-15T16:57:11;54.80;;;33.60;;
40659;SDS011;26753;45.544;9.232;2024-02-15T16:59:37;48.78;;;32.83;;
40659;SDS011;26753;45.544;9.232;2024-02-15T17:02:03;54.47;;;31.88;;
40659;SDS011;26753;45.544;9.232;2024-02-15T17:04:28;52.95;;;32.40;;
40659;SDS011;26753;45.544;9.232;2024-02-15T17:06:54;57.08;;;32.58;;
40659;SDS011;26753;45.544;9.232;2024-02-15T17:09:20;50.90;;;31.85;;
40659;SDS011;26753;45.544;9.232;2024-02-15T17:11:49;50.42;;;32.40;;
40659;SDS011;26753;45.544;9.232;2024-02-15T17:14:24;50.58;;;33.00;;
40659;SDS011;26753;45.544;9.232;2024-02-15T17:16:54;50.83;;;32.15;;
40659;SDS011;26753;45.544;9.232;2024-02-15T17:19:20;50.85;;;32.47;;
40659;SDS011;26753;45.544;9.232;2024-02-15T17:21:48;53.58;;;32.65;;
40659;SDS011;26753;45.544;9.232;2024-02-15T17:24:14;55.17;;;32.83;;
40659;SDS011;26753;45.544;9.232;2024-02-15T17:26:43;48.80;;;32.67;;
40659;SDS011;26753;45.544;9.232;2024-02-15T17:29:09;53.30;;;31.98;;
40659;SDS011;26753;45.544;9.232;2024-02-15T17:31:37;62.70;;;35.25;;
40659;SDS011;26753;45.544;9.232;2024-02-15T17:34:06;53.10;;;32.30;;
40659;SDS011;26753;45.544;9.232;2024-02-15T17:36:39;54.03;;;33.63;;
40659;SDS011;26753;45.544;9.232;2024-02-15T17:39:05;54.60;;;33.90;;
40659;SDS011;26753;45.544;9.232;2024-02-15T17:41:32;62.17;;;34.38;;
40659;SDS011;26753;45.544;9.232;2024-02-15T17:43:59;53.92;;;33.38;;
40659;SDS011;26753;45.544;9.232;2024-02-15T17:46:29;57.17;;;33.15;;
40659;SDS011;26753;45.544;9.232;2024-02-15T17:48:57;54.78;;;33.90;;
40659;SDS011;26753;45.544;9.232;2024-02-15T17:51:25;67.07;;;37.40;;
40659;SDS011;26753;45.544;9.232;2024-02-15T17:53:51;60.65;;;37.25;;
40659;SDS011;26753;45.544;9.232;2024-02-15T17:56:23;64.80;;;36.63;;